createdAt,value
2022-07-27T00:01:50.606Z,13.60
2022-07-27T00:04:19.378Z,13.60
2022-07-27T00:06:47.805Z,13.60
2022-07-27T00:09:15.278Z,13.60
2022-07-27T00:11:42.448Z,13.60
2022-07-27T00:14:09.322Z,13.70
2022-07-27T00:16:36.423Z,13.70
2022-07-27T00:19:03.754Z,13.70
2022-07-27T00:21:30.877Z,13.70
2022-07-27T00:23:57.730Z,13.70
2022-07-27T00:26:24.635Z,13.70
2022-07-27T00:28:51.613Z,13.70
2022-07-27T00:31:18.533Z,13.70
2022-07-27T00:33:45.466Z,13.70
2022-07-27T00:36:12.367Z,13.70
2022-07-27T00:38:39.254Z,13.70
2022-07-27T00:41:06.234Z,13.60
2022-07-27T00:43:34.012Z,13.60
2022-07-27T00:46:04.784Z,13.60
2022-07-27T00:48:32.072Z,13.60
2022-07-27T00:50:59.177Z,13.60
2022-07-27T00:53:26.341Z,13.60
2022-07-27T00:55:53.263Z,13.50
2022-07-27T00:58:20.075Z,13.50
2022-07-27T01:00:46.948Z,13.40
2022-07-27T01:03:16.330Z,13.40
2022-07-27T01:05:43.977Z,13.40
2022-07-27T01:08:15.012Z,13.40
2022-07-27T01:11:21.066Z,13.30
2022-07-27T01:21:06.369Z,13.30
2022-07-27T01:25:01.004Z,13.30
2022-07-27T01:27:29.892Z,13.40
2022-07-27T01:30:48.621Z,13.40
2022-07-27T01:33:36.996Z,13.40
2022-07-27T01:36:29.410Z,13.40
2022-07-27T01:49:41.268Z,13.20
2022-07-27T01:53:26.891Z,13.20
2022-07-27T01:56:37.457Z,13.20
2022-07-27T01:59:05.221Z,13.20
2022-07-27T02:05:03.494Z,13.30
2022-07-27T02:07:38.417Z,13.30
2022-07-27T02:10:25.683Z,13.30
2022-07-27T02:13:15.297Z,13.30
2022-07-27T02:16:43.763Z,13.30
2022-07-27T02:28:53.537Z,13.40
2022-07-27T02:34:13.049Z,13.30
2022-07-27T02:36:56.164Z,13.30
2022-07-27T02:42:54.392Z,13.20
2022-07-27T02:45:51.878Z,13.10
2022-07-27T02:49:08.359Z,13.10
2022-07-27T02:51:31.509Z,13.10
2022-07-27T02:57:24.339Z,13.00
2022-07-27T02:59:57.251Z,12.90
2022-07-27T03:02:30.030Z,12.90
2022-07-27T03:05:01.036Z,12.90
2022-07-27T03:08:51.162Z,12.80
2022-07-27T03:11:06.745Z,12.80
2022-07-27T03:14:19.675Z,12.80
2022-07-27T03:16:57.234Z,12.80
2022-07-27T03:25:12.223Z,12.80
2022-07-27T03:28:21.108Z,12.80
2022-07-27T03:31:33.198Z,12.80
2022-07-27T03:34:21.722Z,12.80
2022-07-27T03:37:14.093Z,12.80
2022-07-27T03:40:12.941Z,12.80
2022-07-27T03:52:39.739Z,12.80
2022-07-27T03:55:49.338Z,12.80
2022-07-27T04:01:30.579Z,12.90
2022-07-27T04:04:18.287Z,13.00
2022-07-27T04:07:17.369Z,13.00
2022-07-27T04:09:57.142Z,13.00
2022-07-27T04:12:55.397Z,13.10
2022-07-27T04:16:02.306Z,13.10
2022-07-27T04:18:36.889Z,13.10
2022-07-27T04:24:34.493Z,13.20
2022-07-27T04:27:45.027Z,13.20
2022-07-27T04:31:06.456Z,13.30
2022-07-27T04:37:35.173Z,13.40
2022-07-27T04:40:37.334Z,13.40
2022-07-27T04:43:24.402Z,13.50
2022-07-27T04:46:16.576Z,13.60
2022-07-27T04:49:20.409Z,13.60
2022-07-27T04:57:31.759Z,13.80
2022-07-27T05:00:34.717Z,13.90
2022-07-27T05:10:44.884Z,13.80
2022-07-27T05:14:10.601Z,13.80
2022-07-27T05:17:22.406Z,13.80
2022-07-27T05:20:20.676Z,13.80
2022-07-27T05:23:19.430Z,13.80
2022-07-27T05:36:03.680Z,14.30
2022-07-27T05:44:21.109Z,14.60
2022-07-27T05:50:30.190Z,14.80
2022-07-27T05:56:34.085Z,15.00
2022-07-27T05:59:37.567Z,15.10
2022-07-27T06:02:34.049Z,15.20
2022-07-27T06:05:27.349Z,15.30
2022-07-27T06:08:18.761Z,15.40
2022-07-27T06:11:11.611Z,15.40
2022-07-27T06:13:56.724Z,15.40
2022-07-27T06:16:31.296Z,15.50
2022-07-27T06:27:06.291Z,15.70
2022-07-27T06:30:36.448Z,15.80
2022-07-27T06:36:08.503Z,15.90
2022-07-27T06:38:44.322Z,15.90
2022-07-27T06:41:11.428Z,15.80
2022-07-27T06:44:15.865Z,15.70
2022-07-27T06:47:07.338Z,15.60
2022-07-27T06:50:09.741Z,15.50
2022-07-27T07:01:43.363Z,15.60
2022-07-27T07:04:15.275Z,15.70
2022-07-27T07:12:07.439Z,15.90
2022-07-27T07:14:38.355Z,16.00
2022-07-27T07:17:05.307Z,16.10
2022-07-27T07:19:32.202Z,16.20
2022-07-27T07:21:59.034Z,16.30
2022-07-27T07:24:25.937Z,16.40
2022-07-27T07:26:52.842Z,16.60
2022-07-27T07:29:19.745Z,16.60
2022-07-27T07:31:46.712Z,16.70
2022-07-27T07:34:13.559Z,16.60
2022-07-27T07:36:41.009Z,16.60
2022-07-27T07:39:07.832Z,16.70
2022-07-27T07:41:36.472Z,16.70
2022-07-27T07:44:04.041Z,16.70
2022-07-27T07:46:31.848Z,16.80
2022-07-27T07:48:58.827Z,16.80
2022-07-27T07:51:30.835Z,16.80
2022-07-27T07:53:58.123Z,16.70
2022-07-27T07:56:25.282Z,16.60
2022-07-27T07:58:52.107Z,16.70
2022-07-27T08:01:19.160Z,16.80
2022-07-27T08:03:51.090Z,17.00
2022-07-27T08:06:21.277Z,17.10
2022-07-27T08:09:13.398Z,17.20
2022-07-27T08:11:51.252Z,17.30
2022-07-27T08:14:18.129Z,17.50
2022-07-27T08:16:54.152Z,17.90
2022-07-27T08:19:21.001Z,18.10
2022-07-27T08:21:54.161Z,18.10
2022-07-27T08:24:21.055Z,18.10
2022-07-27T08:26:57.383Z,17.90
2022-07-27T08:29:24.332Z,17.80
2022-07-27T08:32:06.877Z,17.70
2022-07-27T08:34:34.027Z,17.60
2022-07-27T08:37:00.782Z,17.60
2022-07-27T08:42:16.559Z,17.90
2022-07-27T08:44:44.365Z,17.80
2022-07-27T08:47:20.166Z,17.80
2022-07-27T08:49:49.743Z,17.80
2022-07-27T08:52:17.054Z,18.10
2022-07-27T08:54:44.317Z,18.40
2022-07-27T08:57:11.406Z,18.30
2022-07-27T08:59:40.534Z,18.30
2022-07-27T09:02:10.890Z,18.30
2022-07-27T09:04:46.045Z,18.30
2022-07-27T09:07:41.219Z,18.30
2022-07-27T09:10:12.472Z,18.70
2022-07-27T09:12:39.568Z,18.80
2022-07-27T09:15:13.319Z,19.20
2022-07-27T09:17:49.399Z,19.50
2022-07-27T09:20:19.810Z,19.60
2022-07-27T09:22:52.718Z,19.50
2022-07-27T09:26:01.535Z,19.30
2022-07-27T09:28:29.437Z,19.10
2022-07-27T09:31:04.468Z,18.90
2022-07-27T09:33:41.290Z,18.80
2022-07-27T09:36:08.248Z,18.60
2022-07-27T09:38:35.191Z,18.50
2022-07-27T09:41:03.796Z,18.50
2022-07-27T09:46:40.287Z,18.60
2022-07-27T09:49:25.473Z,18.90
2022-07-27T09:52:01.305Z,19.50
2022-07-27T09:54:43.581Z,19.40
2022-07-27T09:57:11.237Z,19.30
2022-07-27T09:59:41.294Z,19.40
2022-07-27T10:02:09.383Z,19.70
2022-07-27T10:04:56.004Z,20.20
2022-07-27T10:07:22.932Z,20.10
2022-07-27T10:09:54.589Z,19.80
2022-07-27T10:12:24.535Z,19.80
2022-07-27T10:14:51.367Z,19.70
2022-07-27T10:17:18.630Z,19.80
2022-07-27T10:19:47.084Z,20.00
2022-07-27T10:22:37.081Z,20.20
2022-07-27T10:25:04.621Z,20.40
2022-07-27T10:27:31.595Z,20.50
2022-07-27T10:30:00.989Z,20.60
2022-07-27T10:35:32.894Z,20.70
2022-07-27T10:38:16.711Z,20.60
2022-07-27T10:40:44.265Z,20.60
2022-07-27T10:43:22.957Z,20.50
2022-07-27T10:46:02.141Z,20.50
2022-07-27T10:48:48.416Z,20.70
2022-07-27T10:51:33.826Z,20.80
2022-07-27T10:57:00.869Z,21.10
2022-07-27T11:02:42.631Z,21.70
2022-07-27T11:05:42.493Z,22.10
2022-07-27T11:10:51.412Z,22.50
2022-07-27T11:13:20.115Z,22.50
2022-07-27T11:16:23.018Z,22.20
2022-07-27T11:19:04.474Z,21.80
2022-07-27T11:21:36.161Z,21.40
2022-07-27T11:24:14.569Z,21.00
2022-07-27T11:26:50.016Z,20.70
2022-07-27T11:29:40.168Z,20.70
2022-07-27T11:34:47.155Z,20.60
2022-07-27T11:37:23.716Z,20.50
2022-07-27T11:40:42.269Z,20.20
2022-07-27T11:42:55.607Z,20.00
2022-07-27T11:45:42.264Z,19.80
2022-07-27T11:48:12.106Z,19.80
2022-07-27T11:50:57.891Z,19.70
2022-07-27T11:53:24.736Z,19.70
2022-07-27T11:55:51.503Z,19.50
2022-07-27T11:58:24.191Z,19.60
2022-07-27T12:00:51.034Z,20.10
2022-07-27T12:06:01.823Z,20.50
2022-07-27T12:08:32.274Z,20.30
2022-07-27T12:11:02.661Z,20.30
2022-07-27T12:13:43.696Z,20.80
2022-07-27T12:16:11.310Z,21.10
2022-07-27T12:18:43.672Z,21.20
2022-07-27T12:21:22.701Z,21.10
2022-07-27T12:23:53.084Z,21.00
2022-07-27T12:26:25.333Z,21.00
2022-07-27T12:29:07.915Z,21.00
2022-07-27T12:31:48.003Z,21.20
2022-07-27T12:34:15.349Z,21.20
2022-07-27T12:36:54.408Z,21.30
2022-07-27T12:39:29.212Z,21.40
2022-07-27T12:42:04.697Z,21.80
2022-07-27T12:44:41.015Z,22.00
2022-07-27T12:47:29.942Z,21.90
2022-07-27T12:50:07.893Z,21.60
2022-07-27T12:52:37.013Z,21.40
2022-07-27T12:55:05.298Z,21.50
2022-07-27T12:57:54.547Z,21.40
2022-07-27T13:00:29.184Z,21.20
2022-07-27T13:02:59.683Z,21.10
2022-07-27T13:05:26.697Z,21.20
2022-07-27T13:07:54.734Z,21.20
2022-07-27T13:10:22.432Z,21.20
2022-07-27T13:12:55.561Z,21.10
2022-07-27T13:27:05.828Z,20.50
2022-07-27T13:30:15.164Z,20.90
2022-07-27T13:36:47.360Z,21.20
2022-07-27T13:48:13.953Z,21.20
2022-07-27T13:54:17.556Z,21.00
2022-07-27T13:57:32.311Z,20.90
2022-07-27T14:03:00.188Z,20.40
2022-07-27T14:06:09.165Z,20.30
2022-07-27T14:09:53.828Z,20.30
2022-07-27T14:13:28.567Z,20.20
2022-07-27T14:19:34.920Z,20.30
2022-07-27T14:22:02.798Z,20.40
2022-07-27T14:24:37.600Z,20.50
2022-07-27T14:27:36.062Z,20.60
2022-07-27T14:30:51.045Z,20.50
2022-07-27T14:33:18.234Z,20.60
2022-07-27T14:36:10.227Z,20.50
2022-07-27T14:39:00.878Z,20.20
2022-07-27T14:41:55.118Z,20.00
2022-07-27T14:44:29.616Z,19.70
2022-07-27T14:50:05.914Z,19.40
2022-07-27T14:52:35.971Z,19.50
2022-07-27T15:07:30.260Z,19.20
2022-07-27T15:10:16.905Z,19.20
2022-07-27T15:12:52.722Z,19.20
2022-07-27T15:18:38.285Z,19.20
2022-07-27T15:21:14.114Z,19.10
2022-07-27T15:24:15.210Z,19.00
2022-07-27T15:26:44.554Z,18.90
2022-07-27T15:29:44.230Z,18.80
2022-07-27T15:32:13.736Z,18.70
2022-07-27T15:34:40.853Z,18.60
2022-07-27T15:37:13.776Z,18.60
2022-07-27T15:40:34.636Z,18.50
2022-07-27T15:43:12.071Z,18.60
2022-07-27T15:45:48.007Z,18.60
2022-07-27T15:48:27.988Z,18.60
2022-07-27T15:51:24.067Z,18.50
2022-07-27T15:56:37.142Z,18.40
2022-07-27T15:59:42.505Z,18.50
2022-07-27T16:02:26.166Z,18.40
2022-07-27T16:04:56.752Z,18.50
2022-07-27T16:07:40.761Z,18.40
2022-07-27T16:10:29.583Z,18.40
2022-07-27T16:16:15.638Z,18.60
2022-07-27T16:19:00.205Z,18.70
2022-07-27T16:21:56.147Z,18.70
2022-07-27T16:24:38.312Z,18.70
2022-07-27T16:30:38.269Z,18.40
2022-07-27T16:41:54.101Z,18.10
2022-07-27T16:44:34.721Z,18.10
2022-07-27T16:47:09.633Z,18.10
2022-07-27T16:49:37.212Z,18.10
2022-07-27T17:03:13.042Z,17.90
2022-07-27T17:52:25.295Z,17.40
2022-07-27T17:59:20.484Z,17.20
2022-07-27T18:03:18.057Z,17.20
2022-07-27T18:05:26.756Z,17.10
2022-07-27T18:10:58.723Z,17.00
2022-07-27T18:13:37.922Z,17.00
2022-07-27T18:16:20.351Z,16.90
2022-07-27T18:18:56.963Z,16.80
2022-07-27T18:35:03.051Z,16.70
2022-07-27T18:41:19.404Z,16.60
2022-07-27T18:43:57.521Z,16.50
2022-07-27T18:46:27.727Z,16.50
2022-07-27T18:48:55.991Z,16.50
2022-07-27T18:51:31.348Z,16.40
2022-07-27T18:54:08.611Z,16.40
2022-07-27T19:00:24.081Z,16.30
2022-07-27T19:02:57.967Z,16.30
2022-07-27T19:05:53.556Z,16.20
2022-07-27T19:08:47.530Z,16.20
2022-07-27T19:11:26.525Z,16.20
2022-07-27T19:14:03.383Z,16.10
2022-07-27T19:20:02.330Z,16.10
2022-07-27T19:23:25.983Z,16.00
2022-07-27T19:25:52.941Z,16.00
2022-07-27T19:35:25.543Z,15.90
2022-07-27T19:48:18.109Z,15.70
2022-07-27T19:50:51.170Z,15.60
2022-07-27T19:51:25.579Z,15.70
2022-07-27T19:56:37.249Z,15.50
2022-07-27T19:59:29.623Z,15.50
2022-07-27T20:02:24.554Z,15.50
2022-07-27T20:05:02.867Z,15.50
2022-07-27T20:07:29.876Z,15.50
2022-07-27T20:09:56.816Z,15.40
2022-07-27T20:12:23.814Z,15.40
2022-07-27T20:14:50.688Z,15.40
2022-07-27T20:17:17.601Z,15.30
2022-07-27T20:19:45.247Z,15.30
2022-07-27T20:22:12.312Z,15.30
2022-07-27T20:24:39.138Z,15.30
2022-07-27T20:27:06.161Z,15.30
2022-07-27T20:29:33.217Z,15.30
2022-07-27T20:32:00.307Z,15.20
2022-07-27T20:34:27.143Z,15.20
2022-07-27T20:36:55.391Z,15.20
2022-07-27T20:39:25.037Z,15.20
2022-07-27T20:41:52.421Z,15.20
2022-07-27T20:44:20.913Z,15.10
2022-07-27T20:46:48.095Z,15.10
2022-07-27T20:49:16.665Z,15.10
2022-07-27T20:51:44.080Z,15.10
2022-07-27T20:54:10.926Z,15.10
2022-07-27T20:56:37.805Z,15.10
2022-07-27T20:59:16.812Z,15.10
2022-07-27T21:01:44.506Z,15.10
2022-07-27T21:04:11.665Z,15.10
2022-07-27T21:06:38.618Z,15.10
2022-07-27T21:09:11.141Z,15.10
2022-07-27T21:11:38.256Z,15.00
2022-07-27T21:14:05.567Z,15.00
2022-07-27T21:16:32.862Z,15.00
2022-07-27T21:18:59.734Z,15.00
2022-07-27T21:21:27.792Z,15.00
2022-07-27T21:24:13.641Z,15.00
2022-07-27T21:30:28.768Z,14.90
2022-07-27T21:32:55.673Z,14.90
2022-07-27T21:35:22.745Z,14.90
2022-07-27T21:37:52.574Z,14.90
2022-07-27T21:40:32.036Z,14.90
2022-07-27T21:42:58.984Z,14.90
2022-07-27T21:45:26.051Z,14.90
2022-07-27T21:47:53.242Z,14.90
2022-07-27T21:50:20.384Z,14.90
2022-07-27T21:52:47.317Z,14.90
2022-07-27T21:55:14.262Z,14.90
2022-07-27T21:57:49.629Z,14.90
2022-07-27T22:00:21.272Z,14.90
2022-07-27T22:02:54.383Z,14.90
2022-07-27T22:05:22.898Z,14.80
2022-07-27T22:07:51.176Z,14.80
2022-07-27T22:10:19.230Z,14.80
2022-07-27T22:12:46.315Z,14.70
2022-07-27T22:16:05.280Z,14.70
2022-07-27T22:19:20.032Z,14.70
2022-07-27T22:21:46.925Z,14.70
2022-07-27T22:24:27.751Z,14.60
2022-07-27T22:29:35.891Z,14.50
2022-07-27T22:32:02.848Z,14.50
2022-07-27T22:34:29.810Z,14.50
2022-07-27T22:36:56.661Z,14.40
2022-07-27T22:39:23.461Z,14.40
2022-07-27T22:41:50.319Z,14.40
2022-07-27T22:44:54.745Z,14.30
2022-07-27T22:47:21.666Z,14.30
2022-07-27T22:49:48.498Z,14.30
2022-07-27T22:52:15.343Z,14.20
2022-07-27T22:54:42.200Z,14.20
2022-07-27T22:57:09.154Z,14.10
2022-07-27T22:59:37.451Z,14.00
2022-07-27T23:05:00.942Z,13.90
2022-07-27T23:10:52.275Z,13.70
2022-07-27T23:13:39.516Z,13.70
2022-07-27T23:16:06.532Z,13.60
2022-07-27T23:18:33.430Z,13.60
2022-07-27T23:21:00.246Z,13.60
2022-07-27T23:23:27.794Z,13.50
2022-07-27T23:25:54.737Z,13.40
2022-07-27T23:28:22.125Z,13.40
2022-07-27T23:30:51.383Z,13.30
2022-07-27T23:33:18.376Z,13.20
2022-07-27T23:35:45.228Z,13.20
2022-07-27T23:38:12.226Z,13.20
2022-07-27T23:40:39.121Z,13.20
2022-07-27T23:43:05.987Z,13.20
2022-07-27T23:45:34.626Z,13.10
2022-07-27T23:48:01.837Z,13.00
2022-07-27T23:50:28.752Z,12.90
2022-07-27T23:52:55.579Z,12.80
2022-07-27T23:55:22.474Z,12.80
2022-07-27T23:57:49.309Z,12.70
